createdAt,value
2023-02-03T00:04:22.712Z,36.75
2023-02-03T00:09:26.240Z,37.83
2023-02-03T00:14:29.336Z,45.38
2023-02-03T00:19:32.601Z,43.42
2023-02-03T00:24:35.632Z,39.40
2023-02-03T00:29:38.684Z,43.83
2023-02-03T00:34:41.820Z,36.58
2023-02-03T00:39:47.598Z,39.53
2023-02-03T00:44:50.642Z,43.95
2023-02-03T00:49:56.382Z,43.75
2023-02-03T00:54:59.455Z,46.58
2023-02-03T01:00:03.078Z,36.97
2023-02-03T01:05:07.474Z,38.83
2023-02-03T01:10:11.196Z,40.45
2023-02-03T01:15:14.355Z,30.17
2023-02-03T01:20:17.492Z,41.22
2023-02-03T01:25:20.555Z,43.53
2023-02-03T01:30:23.687Z,35.40
2023-02-03T01:35:27.022Z,47.97
2023-02-03T01:40:30.028Z,33.40
2023-02-03T01:45:33.079Z,37.13
2023-02-03T01:50:38.252Z,37.42
2023-02-03T01:55:47.323Z,33.22
2023-02-03T02:00:50.961Z,33.58
2023-02-03T02:06:03.122Z,33.50
2023-02-03T02:11:07.808Z,27.05
2023-02-03T02:16:28.077Z,23.23
2023-02-03T02:21:31.093Z,22.17
2023-02-03T02:26:45.821Z,24.88
2023-02-03T02:32:04.468Z,27.42
2023-02-03T02:37:16.396Z,27.13
2023-02-03T02:47:26.954Z,19.35
2023-02-03T02:52:35.363Z,26.35
2023-02-03T02:57:40.073Z,25.30
2023-02-03T03:02:43.232Z,27.80
2023-02-03T03:07:59.559Z,26.33
2023-02-03T03:13:07.987Z,28.58
2023-02-03T03:18:22.808Z,25.58
2023-02-03T03:23:32.127Z,22.15
2023-02-03T03:28:54.880Z,29.85
2023-02-03T03:33:58.022Z,23.52
2023-02-03T03:39:59.161Z,28.70
2023-02-03T03:45:32.801Z,25.45
2023-02-03T03:50:42.385Z,25.20
2023-02-03T03:55:50.147Z,27.27
2023-02-03T04:00:57.732Z,26.45
2023-02-03T04:06:00.677Z,27.35
2023-02-03T04:11:03.683Z,27.25
2023-02-03T04:16:06.991Z,24.98
2023-02-03T04:21:10.069Z,24.85
2023-02-03T04:26:13.837Z,28.73
2023-02-03T04:31:17.345Z,21.80
2023-02-03T04:36:20.359Z,23.33
2023-02-03T04:41:23.578Z,25.88
2023-02-03T04:46:26.739Z,20.45
2023-02-03T04:51:29.803Z,21.23
2023-02-03T04:56:32.845Z,20.80
2023-02-03T05:01:35.985Z,22.80
2023-02-03T05:06:39.065Z,19.25
2023-02-03T05:11:42.260Z,26.23
2023-02-03T05:16:46.375Z,28.10
2023-02-03T05:21:49.560Z,22.05
2023-02-03T05:26:52.551Z,21.60
2023-02-03T05:31:55.667Z,22.45
2023-02-03T05:36:59.071Z,25.90
2023-02-03T05:42:03.653Z,25.50
2023-02-03T05:47:06.709Z,25.67
2023-02-03T05:52:10.710Z,23.73
2023-02-03T05:57:14.942Z,27.02
2023-02-03T06:02:17.983Z,27.95
2023-02-03T06:07:21.069Z,25.77
2023-02-03T06:12:24.322Z,24.35
2023-02-03T06:17:27.438Z,24.58
2023-02-03T06:22:30.612Z,25.55
2023-02-03T06:27:33.863Z,24.17
2023-02-03T06:32:36.932Z,27.67
2023-02-03T06:37:40.071Z,28.90
2023-02-03T06:42:49.362Z,26.67
2023-02-03T06:47:52.508Z,25.83
2023-02-03T06:52:55.788Z,28.67
2023-02-03T06:57:58.948Z,22.58
2023-02-03T07:03:02.654Z,24.45
2023-02-03T07:08:05.944Z,27.38
2023-02-03T07:13:09.272Z,28.05
2023-02-03T07:18:14.994Z,27.10
2023-02-03T07:23:21.036Z,27.55
2023-02-03T07:28:24.054Z,22.10
2023-02-03T07:33:28.180Z,23.50
2023-02-03T07:38:33.214Z,28.88
2023-02-03T07:43:36.350Z,28.58
2023-02-03T07:48:39.781Z,26.45
2023-02-03T07:53:42.853Z,25.20
2023-02-03T07:58:45.973Z,29.33
2023-02-03T08:03:49.023Z,24.50
2023-02-03T08:08:54.507Z,36.92
2023-02-03T08:13:57.638Z,36.20
2023-02-03T08:19:01.287Z,45.30
2023-02-03T08:24:05.178Z,35.47
2023-02-03T08:29:08.879Z,36.72
2023-02-03T08:34:14.624Z,42.63
2023-02-03T08:39:18.008Z,44.88
2023-02-03T08:44:21.747Z,29.45
2023-02-03T08:49:27.293Z,28.30
2023-02-03T08:54:30.455Z,24.52
2023-02-03T08:59:36.386Z,25.95
2023-02-03T09:04:39.545Z,27.85
2023-02-03T09:09:42.956Z,27.38
2023-02-03T09:14:46.280Z,20.27
2023-02-03T09:19:49.512Z,21.45
2023-02-03T09:24:52.584Z,24.83
2023-02-03T09:29:55.675Z,22.85
2023-02-03T09:34:58.787Z,23.50
2023-02-03T09:40:01.879Z,26.05
2023-02-03T09:45:08.878Z,19.48
2023-02-03T09:50:20.248Z,20.92
2023-02-03T09:55:28.643Z,17.95
2023-02-03T10:00:40.735Z,15.50
2023-02-03T10:06:05.914Z,13.60
2023-02-03T10:11:12.156Z,14.60
2023-02-03T10:16:56.607Z,14.57
2023-02-03T10:22:01.870Z,15.68
2023-02-03T10:27:05.273Z,7.30
2023-02-03T10:32:12.298Z,4.78
2023-02-03T10:37:47.658Z,4.85
2023-02-03T10:43:10.288Z,6.22
2023-02-03T10:48:18.348Z,6.28
2023-02-03T10:53:24.158Z,5.75
2023-02-03T10:58:30.784Z,4.50
2023-02-03T11:03:34.628Z,8.20
2023-02-03T11:08:44.107Z,6.85
2023-02-03T11:13:49.520Z,8.50
2023-02-03T11:18:54.535Z,9.30
2023-02-03T11:24:18.929Z,8.63
2023-02-03T11:29:34.630Z,7.93
2023-02-03T11:34:39.893Z,13.25
2023-02-03T11:39:43.010Z,8.38
2023-02-03T11:44:46.127Z,10.43
2023-02-03T11:50:21.780Z,8.70
2023-02-03T11:56:06.403Z,9.80
2023-02-03T12:01:57.266Z,11.80
2023-02-03T12:07:06.405Z,8.15
2023-02-03T12:12:21.254Z,10.45
2023-02-03T12:18:00.917Z,10.30
2023-02-03T12:23:15.914Z,10.75
2023-02-03T12:28:33.625Z,8.68
2023-02-03T12:34:14.458Z,8.50
2023-02-03T12:39:34.476Z,13.95
2023-02-03T12:44:48.931Z,7.57
2023-02-03T12:49:58.549Z,15.52
2023-02-03T12:55:22.662Z,9.95
2023-02-03T13:00:47.570Z,9.68
2023-02-03T13:06:25.753Z,10.02
2023-02-03T13:11:31.912Z,8.48
2023-02-03T13:16:40.648Z,9.60
2023-02-03T13:21:43.717Z,13.55
2023-02-03T13:27:37.085Z,9.02
2023-02-03T13:32:46.259Z,17.95
2023-02-03T13:38:29.468Z,9.00
2023-02-03T13:43:39.270Z,8.43
2023-02-03T13:48:46.567Z,6.18
2023-02-03T13:53:51.283Z,10.98
2023-02-03T13:59:07.515Z,7.45
2023-02-03T14:04:25.440Z,8.77
2023-02-03T14:09:31.252Z,6.85
2023-02-03T14:14:34.194Z,10.68
2023-02-03T14:19:52.507Z,8.23
2023-02-03T14:24:59.126Z,10.90
2023-02-03T14:30:09.208Z,11.02
2023-02-03T14:35:19.698Z,7.38
2023-02-03T14:40:34.081Z,11.63
2023-02-03T14:45:51.589Z,9.05
2023-02-03T14:51:02.601Z,13.75
2023-02-03T14:56:59.978Z,10.63
2023-02-03T15:02:03.075Z,8.82
2023-02-03T15:07:06.200Z,10.88
2023-02-03T15:12:19.173Z,10.25
2023-02-03T15:17:25.427Z,7.30
2023-02-03T15:22:30.812Z,9.57
2023-02-03T15:27:33.860Z,7.68
2023-02-03T15:32:43.191Z,10.10
2023-02-03T15:37:50.601Z,7.22
2023-02-03T15:43:02.795Z,8.75
2023-02-03T15:48:25.835Z,11.05
2023-02-03T15:53:46.814Z,8.52
2023-02-03T15:58:51.128Z,7.93
2023-02-03T16:03:56.764Z,8.38
2023-02-03T16:09:00.032Z,10.73
2023-02-03T16:14:08.668Z,9.10
2023-02-03T16:19:22.148Z,13.20
2023-02-03T16:24:34.245Z,10.93
2023-02-03T16:29:55.749Z,9.68
2023-02-03T16:35:17.324Z,11.63
2023-02-03T16:40:42.790Z,10.43
2023-02-03T16:46:22.120Z,13.02
2023-02-03T16:51:25.292Z,9.55
2023-02-03T16:56:28.452Z,11.30
2023-02-03T17:01:31.531Z,9.70
2023-02-03T17:06:39.028Z,10.85
2023-02-03T17:11:42.234Z,11.52
2023-02-03T17:16:47.651Z,10.98
2023-02-03T17:21:53.690Z,20.65
2023-02-03T17:26:58.074Z,12.32
2023-02-03T17:32:05.360Z,12.45
2023-02-03T17:37:08.523Z,7.60
2023-02-03T17:58:14.832Z,11.07
2023-02-03T18:03:25.119Z,10.40
2023-02-03T18:08:28.254Z,12.43
2023-02-03T18:13:36.711Z,12.68
2023-02-03T18:18:45.837Z,13.70
2023-02-03T18:24:02.089Z,12.27
2023-02-03T18:29:09.322Z,12.75
2023-02-03T18:34:15.952Z,16.33
2023-02-03T18:39:24.808Z,9.55
2023-02-03T18:44:33.677Z,11.55
2023-02-03T18:49:39.610Z,10.93
2023-02-03T18:54:44.494Z,17.30
2023-02-03T18:59:53.113Z,8.23
2023-02-03T19:04:59.760Z,13.63
2023-02-03T19:10:06.637Z,14.50
2023-02-03T19:15:10.828Z,10.00
2023-02-03T19:20:16.296Z,10.52
2023-02-03T19:25:19.400Z,10.95
2023-02-03T19:30:25.059Z,12.63
2023-02-03T19:35:28.253Z,14.13
2023-02-03T19:40:31.808Z,14.73
2023-02-03T19:45:36.377Z,12.48
2023-02-03T19:50:41.165Z,14.25
2023-02-03T19:55:44.623Z,17.75
2023-02-03T20:00:47.820Z,10.85
2023-02-03T20:05:53.337Z,13.77
2023-02-03T20:10:56.490Z,14.52
2023-02-03T20:16:00.194Z,12.07
2023-02-03T20:21:03.516Z,9.88
2023-02-03T20:26:06.868Z,6.18
2023-02-03T20:31:09.975Z,8.55
2023-02-03T20:36:13.073Z,10.35
2023-02-03T20:41:18.890Z,10.82
2023-02-03T20:46:21.952Z,9.23
2023-02-03T20:51:27.130Z,7.45
2023-02-03T20:56:30.167Z,14.68
2023-02-03T21:01:33.535Z,8.70
2023-02-03T21:06:36.651Z,7.38
2023-02-03T21:11:39.664Z,10.25
2023-02-03T21:16:42.752Z,9.93
2023-02-03T21:21:47.637Z,9.30
2023-02-03T21:26:50.738Z,8.38
2023-02-03T21:31:54.973Z,6.57
2023-02-03T21:37:35.249Z,6.55
2023-02-03T21:42:41.393Z,4.50
2023-02-03T21:47:46.166Z,8.07
2023-02-03T21:52:49.211Z,6.78
2023-02-03T21:57:55.030Z,10.50
2023-02-03T22:03:02.251Z,9.25
2023-02-03T22:13:20.520Z,8.05
2023-02-03T22:18:24.220Z,6.65
2023-02-03T22:23:27.314Z,6.82
2023-02-03T22:28:30.337Z,7.47
2023-02-03T22:33:34.316Z,9.25
2023-02-03T22:38:38.856Z,10.80
2023-02-03T22:43:42.218Z,10.20
2023-02-03T22:48:45.338Z,11.88
2023-02-03T22:53:48.533Z,14.75
2023-02-03T22:58:51.518Z,7.90
2023-02-03T23:03:54.576Z,11.13
2023-02-03T23:08:57.683Z,8.60
2023-02-03T23:14:00.696Z,9.60
2023-02-03T23:19:04.606Z,8.15
2023-02-03T23:24:08.000Z,7.78
2023-02-03T23:29:11.120Z,10.02
2023-02-03T23:34:32.759Z,13.18
2023-02-03T23:39:35.807Z,10.85
2023-02-03T23:44:38.946Z,9.38
2023-02-03T23:49:41.968Z,11.80
2023-02-03T23:54:45.076Z,15.75
2023-02-03T23:59:48.187Z,12.38
